createdAt,value
2022-09-27T00:03:22.477Z,0.00
2022-09-27T00:08:22.381Z,0.00
2022-09-27T00:13:22.332Z,0.00
2022-09-27T00:18:22.263Z,0.00
2022-09-27T00:23:22.245Z,0.00
2022-09-27T00:28:22.307Z,0.00
2022-09-27T00:33:22.070Z,0.00
2022-09-27T00:38:22.009Z,0.00
2022-09-27T00:43:21.942Z,0.00
2022-09-27T00:48:21.850Z,0.00
2022-09-27T00:53:21.806Z,0.00
2022-09-27T00:58:21.748Z,0.00
2022-09-27T01:03:21.685Z,0.00
2022-09-27T01:08:21.619Z,0.00
2022-09-27T01:13:21.534Z,0.00
2022-09-27T01:18:21.484Z,0.00
2022-09-27T01:23:21.420Z,0.00
2022-09-27T01:28:21.402Z,0.00
2022-09-27T01:33:21.467Z,0.00
2022-09-27T01:38:21.199Z,0.00
2022-09-27T01:43:21.159Z,0.00
2022-09-27T01:48:21.075Z,0.00
2022-09-27T01:53:21.023Z,0.00
2022-09-27T01:58:20.979Z,0.00
2022-09-27T02:03:20.889Z,0.00
2022-09-27T02:08:20.858Z,0.00
2022-09-27T02:13:20.762Z,0.00
2022-09-27T02:18:20.706Z,0.00
2022-09-27T02:23:20.663Z,0.00
2022-09-27T02:28:20.580Z,0.00
2022-09-27T02:33:20.499Z,0.00
2022-09-27T02:38:20.475Z,0.00
2022-09-27T02:43:20.380Z,0.00
2022-09-27T02:48:20.364Z,0.00
2022-09-27T02:53:20.243Z,0.00
2022-09-27T02:58:20.214Z,0.00
2022-09-27T03:03:20.133Z,0.00
2022-09-27T03:08:20.070Z,0.00
2022-09-27T03:13:20.006Z,0.00
2022-09-27T03:18:19.938Z,0.00
2022-09-27T03:23:19.880Z,0.00
2022-09-27T03:28:19.819Z,0.00
2022-09-27T03:33:19.763Z,0.00
2022-09-27T03:38:19.801Z,0.00
2022-09-27T03:43:19.808Z,0.00
2022-09-27T03:48:20.830Z,0.00
2022-09-27T03:53:26.574Z,0.00
2022-09-27T03:58:19.403Z,0.00
2022-09-27T04:03:19.353Z,0.00
2022-09-27T04:08:19.293Z,0.00
2022-09-27T04:13:19.203Z,0.00
2022-09-27T04:18:19.142Z,0.00
2022-09-27T04:23:19.116Z,0.00
2022-09-27T04:28:19.024Z,0.00
2022-09-27T04:33:18.972Z,0.00
2022-09-27T04:38:18.894Z,0.00
2022-09-27T04:43:18.815Z,4.00
2022-09-27T04:48:18.942Z,8.00
2022-09-27T04:53:18.702Z,8.00
2022-09-27T04:58:18.652Z,16.00
2022-09-27T05:03:18.575Z,36.00
2022-09-27T05:08:18.497Z,44.00
2022-09-27T05:13:18.414Z,60.00
2022-09-27T05:18:18.368Z,84.00
2022-09-27T05:23:18.307Z,80.00
2022-09-27T05:28:18.218Z,96.00
2022-09-27T05:33:18.192Z,148.00
2022-09-27T05:38:18.097Z,184.00
2022-09-27T05:43:18.043Z,320.00
2022-09-27T05:48:17.952Z,416.00
2022-09-27T05:53:17.937Z,432.00
2022-09-27T05:58:17.829Z,428.00
2022-09-27T06:03:17.788Z,448.00
2022-09-27T06:08:17.711Z,444.00
2022-09-27T06:13:17.689Z,736.00
2022-09-27T06:18:17.622Z,1048.00
2022-09-27T06:23:17.670Z,916.00
2022-09-27T06:28:17.471Z,1116.00
2022-09-27T06:33:17.406Z,1392.00
2022-09-27T06:38:17.316Z,1368.00
2022-09-27T06:43:17.411Z,1948.00
2022-09-27T06:48:17.461Z,2284.00
2022-09-27T06:53:17.166Z,2960.00
2022-09-27T06:58:17.095Z,4104.00
2022-09-27T07:03:17.762Z,5396.00
2022-09-27T07:08:16.933Z,3328.00
2022-09-27T07:13:20.535Z,1824.00
2022-09-27T07:18:17.015Z,2604.00
2022-09-27T07:23:16.842Z,2708.00
2022-09-27T07:28:21.610Z,3532.00
2022-09-27T07:33:17.638Z,6480.00
2022-09-27T07:38:16.566Z,5584.00
2022-09-27T07:43:16.471Z,3220.00
2022-09-27T07:48:16.401Z,4004.00
2022-09-27T07:53:16.341Z,4056.00
2022-09-27T07:58:16.272Z,3816.00
2022-09-27T08:03:16.424Z,4060.00
2022-09-27T08:08:16.152Z,4604.00
2022-09-27T08:13:16.069Z,4588.00
2022-09-27T08:18:15.996Z,3332.00
2022-09-27T08:23:15.930Z,5064.00
2022-09-27T08:28:15.856Z,5488.00
2022-09-27T08:33:15.869Z,5244.00
2022-09-27T08:38:15.735Z,5308.00
2022-09-27T08:43:15.677Z,4560.00
2022-09-27T08:48:15.597Z,4512.00
2022-09-27T08:53:15.540Z,6864.00
2022-09-27T08:58:15.479Z,9300.00
2022-09-27T09:03:15.405Z,6004.00
2022-09-27T09:08:15.506Z,10028.00
2022-09-27T09:13:15.286Z,9576.00
2022-09-27T09:18:15.204Z,5032.00
2022-09-27T09:23:15.161Z,4556.00
2022-09-27T09:28:15.078Z,5552.00
2022-09-27T09:33:16.535Z,6396.00
2022-09-27T09:38:15.123Z,9532.00
2022-09-27T09:43:15.093Z,10528.00
2022-09-27T09:48:14.940Z,8468.00
2022-09-27T09:53:14.758Z,6920.00
2022-09-27T09:58:19.667Z,6084.00
2022-09-27T10:03:15.678Z,6412.00
2022-09-27T10:08:14.630Z,7760.00
2022-09-27T10:13:14.640Z,10600.00
2022-09-27T10:18:14.415Z,7740.00
2022-09-27T10:23:14.425Z,7120.00
2022-09-27T10:28:14.358Z,9412.00
2022-09-27T10:33:14.234Z,10108.00
2022-09-27T10:38:14.158Z,8120.00
2022-09-27T10:43:14.076Z,4988.00
2022-09-27T10:48:14.032Z,2800.00
2022-09-27T10:53:13.959Z,3344.00
2022-09-27T10:58:14.004Z,4528.00
2022-09-27T11:03:13.945Z,4596.00
2022-09-27T11:08:14.238Z,4564.00
2022-09-27T11:13:13.689Z,5516.00
2022-09-27T11:18:13.753Z,8440.00
2022-09-27T11:23:13.679Z,9332.00
2022-09-27T11:28:13.609Z,8560.00
2022-09-27T11:33:13.459Z,6604.00
2022-09-27T11:38:21.037Z,5840.00
2022-09-27T11:43:14.389Z,5904.00
2022-09-27T11:48:13.244Z,3944.00
2022-09-27T11:53:13.359Z,2768.00
2022-09-27T11:58:13.129Z,4596.00
2022-09-27T12:03:13.202Z,10888.00
2022-09-27T12:08:13.025Z,11164.00
2022-09-27T12:13:12.977Z,7076.00
2022-09-27T12:18:13.209Z,4424.00
2022-09-27T12:23:13.031Z,8460.00
2022-09-27T12:28:12.925Z,8144.00
2022-09-27T12:33:12.646Z,6748.00
2022-09-27T12:38:12.673Z,8776.00
2022-09-27T12:43:12.619Z,10080.00
2022-09-27T12:48:12.633Z,7696.00
2022-09-27T12:53:12.431Z,6784.00
2022-09-27T12:58:12.331Z,4996.00
2022-09-27T13:03:15.811Z,4948.00
2022-09-27T13:08:12.185Z,5660.00
2022-09-27T13:13:12.117Z,6668.00
2022-09-27T13:18:12.058Z,8484.00
2022-09-27T13:23:11.998Z,7196.00
2022-09-27T13:28:12.005Z,6180.00
2022-09-27T13:33:11.836Z,5300.00
2022-09-27T13:38:11.770Z,5820.00
2022-09-27T13:43:11.704Z,6004.00
2022-09-27T13:48:11.714Z,6940.00
2022-09-27T13:53:11.710Z,6528.00
2022-09-27T13:58:11.535Z,6748.00
2022-09-27T14:03:11.437Z,6320.00
2022-09-27T14:08:11.399Z,5356.00
2022-09-27T14:13:11.359Z,5556.00
2022-09-27T14:18:11.260Z,4788.00
2022-09-27T14:23:11.190Z,3788.00
2022-09-27T14:28:11.146Z,2752.00
2022-09-27T14:33:11.253Z,2952.00
2022-09-27T14:38:32.930Z,3268.00
2022-09-27T14:43:11.942Z,3660.00
2022-09-27T14:48:10.859Z,3764.00
2022-09-27T14:53:10.803Z,3416.00
2022-09-27T14:58:29.465Z,2220.00
2022-09-27T15:03:11.770Z,2388.00
2022-09-27T15:08:10.614Z,2428.00
2022-09-27T15:13:10.544Z,1848.00
2022-09-27T15:18:10.483Z,1608.00
2022-09-27T15:23:10.414Z,1372.00
2022-09-27T15:28:10.376Z,1784.00
2022-09-27T15:33:10.273Z,1872.00
2022-09-27T15:38:10.305Z,1612.00
2022-09-27T15:43:10.168Z,1496.00
2022-09-27T15:48:10.055Z,1532.00
2022-09-27T15:53:10.032Z,1568.00
2022-09-27T15:58:09.953Z,1444.00
2022-09-27T16:03:09.882Z,1212.00
2022-09-27T16:08:09.835Z,912.00
2022-09-27T16:13:09.736Z,656.00
2022-09-27T16:18:09.669Z,504.00
2022-09-27T16:23:09.632Z,368.00
2022-09-27T16:28:09.547Z,324.00
2022-09-27T16:33:09.500Z,328.00
2022-09-27T16:38:09.454Z,300.00
2022-09-27T16:43:09.507Z,172.00
2022-09-27T16:48:09.323Z,56.00
2022-09-27T16:53:09.250Z,36.00
2022-09-27T16:58:09.214Z,20.00
2022-09-27T17:03:09.133Z,12.00
2022-09-27T17:08:09.035Z,8.00
2022-09-27T17:13:09.013Z,4.00
2022-09-27T17:18:08.964Z,0.00
2022-09-27T17:23:08.858Z,0.00
2022-09-27T17:28:08.749Z,0.00
2022-09-27T17:33:08.732Z,0.00
2022-09-27T17:38:08.617Z,0.00
2022-09-27T17:43:08.594Z,0.00
2022-09-27T17:48:12.862Z,0.00
2022-09-27T17:53:09.419Z,0.00
2022-09-27T17:58:08.392Z,0.00
2022-09-27T18:03:08.389Z,0.00
2022-09-27T18:08:08.287Z,0.00
2022-09-27T18:13:08.357Z,0.00
2022-09-27T18:18:08.141Z,0.00
2022-09-27T18:23:08.043Z,0.00
2022-09-27T18:28:08.003Z,0.00
2022-09-27T18:33:07.923Z,0.00
2022-09-27T18:38:07.891Z,0.00
2022-09-27T18:43:07.821Z,0.00
2022-09-27T18:48:07.735Z,0.00
2022-09-27T18:53:07.865Z,0.00
2022-09-27T18:58:07.579Z,0.00
2022-09-27T19:03:07.518Z,0.00
2022-09-27T19:08:07.500Z,0.00
2022-09-27T19:13:07.386Z,0.00
2022-09-27T19:18:07.461Z,0.00
2022-09-27T19:23:07.259Z,0.00
2022-09-27T19:28:07.206Z,0.00
2022-09-27T19:33:07.126Z,0.00
2022-09-27T19:38:07.072Z,0.00
2022-09-27T19:43:07.014Z,0.00
2022-09-27T19:48:07.049Z,0.00
2022-09-27T19:53:06.946Z,0.00
2022-09-27T19:58:07.016Z,0.00
2022-09-27T20:03:06.860Z,0.00
2022-09-27T20:08:06.685Z,0.00
2022-09-27T20:13:06.703Z,0.00
2022-09-27T20:18:09.205Z,0.00
2022-09-27T20:23:06.460Z,0.00
2022-09-27T20:28:06.407Z,0.00
2022-09-27T20:33:06.353Z,0.00
2022-09-27T20:38:06.310Z,0.00
2022-09-27T20:43:06.252Z,0.00
2022-09-27T20:48:06.252Z,0.00
2022-09-27T20:53:06.192Z,0.00
2022-09-27T20:58:06.022Z,0.00
2022-09-27T21:03:06.159Z,0.00
2022-09-27T21:08:05.959Z,0.00
2022-09-27T21:13:05.906Z,0.00
2022-09-27T21:18:05.859Z,0.00
2022-09-27T21:23:05.681Z,0.00
2022-09-27T21:28:05.738Z,0.00
2022-09-27T21:33:05.623Z,0.00
2022-09-27T21:38:05.554Z,0.00
2022-09-27T21:43:05.479Z,0.00
2022-09-27T21:48:05.348Z,0.00
2022-09-27T21:53:05.301Z,0.00
2022-09-27T21:58:05.212Z,0.00
2022-09-27T22:03:12.234Z,0.00
2022-09-27T22:08:06.174Z,0.00
2022-09-27T22:13:05.031Z,0.00
2022-09-27T22:18:04.964Z,0.00
2022-09-27T22:23:04.883Z,0.00
2022-09-27T22:28:04.842Z,0.00
2022-09-27T22:33:04.800Z,0.00
2022-09-27T22:38:04.701Z,0.00
2022-09-27T22:43:04.633Z,0.00
2022-09-27T22:48:04.640Z,0.00
2022-09-27T22:53:04.501Z,0.00
2022-09-27T22:58:04.434Z,0.00
2022-09-27T23:03:04.363Z,0.00
2022-09-27T23:08:04.484Z,0.00
2022-09-27T23:13:04.246Z,0.00
2022-09-27T23:18:04.186Z,0.00
2022-09-27T23:23:04.138Z,0.00
2022-09-27T23:28:04.041Z,0.00
2022-09-27T23:33:03.973Z,0.00
2022-09-27T23:38:03.913Z,0.00
2022-09-27T23:43:03.847Z,0.00
2022-09-27T23:48:03.776Z,0.00
2022-09-27T23:53:03.759Z,0.00
2022-09-27T23:58:03.650Z,0.00
